Time;durP1;ratioP1;P1;durP2;ratioP2;P2;SDS_P1;SDS_P2;PMS_P1;PMS_P2;Temp;Humidity;BMP_temperature;BMP_pressure;BME280_temperature;BME280_humidity;BME280_pressure;Samples;Min_cycle;Max_cycle;Signal;HPM_P1;HPM_P2
2023/08/28 00:00:47;;;;;;;2.90;2.67;;;;;;;17.01;100.00;99974.03;5299223;54;1138555;-66
2023/08/28 00:05:54;;;;;;;2.93;2.17;;;;;;;16.93;100.00;99967.91;5196534;54;1138570;-65
2023/08/28 00:11:00;;;;;;;5.72;2.65;;;;;;;16.90;100.00;99981.60;5189001;55;1138995;-65
2023/08/28 00:16:06;;;;;;;4.53;2.77;;;;;;;16.94;100.00;99958.89;5224269;55;1139299;-69
2023/08/28 00:21:11;;;;;;;5.43;2.40;;;;;;;16.99;100.00;99969.87;5110980;56;1138753;-67
2023/08/28 00:26:17;;;;;;;3.40;3.10;;;;;;;16.98;100.00;99990.41;5279963;54;1138767;-67
2023/08/28 00:31:23;;;;;;;4.90;3.10;;;;;;;16.95;100.00;100006.80;5308132;54;1138730;-69
2023/08/28 00:36:28;;;;;;;4.08;3.12;;;;;;;16.93;100.00;100011.98;5287817;54;1140748;-66
2023/08/28 00:41:36;;;;;;;3.02;2.72;;;;;;;16.89;100.00;100002.14;5287841;54;1140796;-66
2023/08/28 00:46:41;;;;;;;2.98;2.72;;;;;;;16.88;100.00;99999.14;5308367;54;1140871;-68
2023/08/28 00:51:47;;;;;;;9.93;3.23;;;;;;;16.90;100.00;100004.31;5287277;54;1138757;-66
2023/08/28 00:56:55;;;;;;;3.57;2.70;;;;;;;16.85;100.00;100023.02;5286745;54;1141190;-67
2023/08/28 01:02:00;;;;;;;7.42;3.12;;;;;;;16.82;100.00;100012.66;5276603;54;1140963;-67
2023/08/28 01:07:22;;;;;;;4.97;3.83;;;;;;;16.80;100.00;100014.67;5218586;55;1140684;-68
2023/08/28 01:12:49;;;;;;;4.67;3.80;;;;;;;16.85;100.00;100004.81;5198020;55;1140899;-67
2023/08/28 01:18:00;;;;;;;7.17;3.93;;;;;;;16.86;100.00;100034.03;5197874;55;1140560;-67
2023/08/28 01:23:39;;;;;;;6.23;4.63;;;;;;;16.84;100.00;100030.69;5197034;55;1141197;-68
2023/08/28 01:28:45;;;;;;;6.67;4.58;;;;;;;16.87;100.00;100037.53;5214811;55;1141106;-68
2023/08/28 01:33:54;;;;;;;6.73;4.73;;;;;;;16.84;100.00;100034.70;5189451;55;1141093;-66
2023/08/28 01:39:06;;;;;;;6.55;4.72;;;;;;;16.76;100.00;100048.59;5189213;55;1141279;-68
2023/08/28 01:44:14;;;;;;;5.10;4.63;;;;;;;16.73;100.00;100060.94;5205141;55;1140981;-69
2023/08/28 01:49:19;;;;;;;10.90;5.27;;;;;;;16.69;100.00;100051.09;5265634;54;1140974;-70
2023/08/28 01:54:26;;;;;;;6.57;5.37;;;;;;;16.68;100.00;100044.08;5272172;54;1142894;-67
2023/08/28 01:59:31;;;;;;;7.00;5.44;;;;;;;16.66;100.00;100031.90;5232376;55;1140858;-65
2023/08/28 02:04:37;;;;;;;6.45;5.58;;;;;;;16.67;100.00;100016.21;5197348;55;1141128;-65
2023/08/28 02:09:43;;;;;;;9.98;5.20;;;;;;;16.68;100.00;100037.41;5188788;55;1141293;-68
2023/08/28 02:14:50;;;;;;;10.98;6.80;;;;;;;16.75;100.00;100026.89;5234672;54;1141147;-69
2023/08/28 02:19:55;;;;;;;5.83;5.27;;;;;;;16.81;100.00;100022.18;5219065;55;1142821;-68
2023/08/28 02:25:05;;;;;;;5.93;5.00;;;;;;;16.86;100.00;100007.31;5277579;54;1140829;-68
2023/08/28 02:30:10;;;;;;;5.67;5.00;;;;;;;16.93;100.00;100018.66;5278215;54;1140843;-67
2023/08/28 02:35:16;;;;;;;6.00;5.40;;;;;;;16.94;100.00;100031.85;5297387;55;1140930;-69
2023/08/28 02:40:22;;;;;;;9.70;5.37;;;;;;;16.98;100.00;100063.04;5270269;55;1140862;-68
2023/08/28 02:45:28;;;;;;;9.23;5.00;;;;;;;16.97;100.00;100055.53;5212012;55;1140701;-68
2023/08/28 02:50:35;;;;;;;8.73;5.17;;;;;;;16.92;100.00;100065.08;5028437;56;1140754;-68
2023/08/28 02:55:42;;;;;;;6.55;4.72;;;;;;;16.90;100.00;100062.58;5057831;56;1140977;-67
2023/08/28 03:00:50;;;;;;;10.37;5.03;;;;;;;16.88;100.00;100053.39;5090078;55;1140864;-68
2023/08/28 03:05:57;;;;;;;5.37;4.58;;;;;;;16.90;100.00;100042.54;5026813;55;1142894;-64
2023/08/28 03:11:03;;;;;;;8.60;4.33;;;;;;;16.89;100.00;100035.53;5095056;57;1140976;-69
2023/08/28 03:16:09;;;;;;;5.33;4.45;;;;;;;16.88;100.00;100027.19;5106267;56;1140756;-68
2023/08/28 03:21:15;;;;;;;8.60;4.53;;;;;;;16.90;100.00;100034.52;5104963;55;1140848;-67
2023/08/28 03:26:21;;;;;;;8.83;4.20;;;;;;;16.91;100.00;100034.86;5125727;56;1140929;-64
2023/08/28 03:31:28;;;;;;;11.40;5.23;;;;;;;16.92;100.00;100035.70;5106184;56;1141167;-66
2023/08/28 03:36:33;;;;;;;7.12;4.58;;;;;;;16.88;100.00;100040.53;5197508;55;1142857;-66
2023/08/28 03:41:39;;;;;;;7.43;4.07;;;;;;;16.90;100.00;100049.22;5217696;55;1140923;-68
2023/08/28 03:46:45;;;;;;;9.75;4.92;;;;;;;16.84;100.00;100057.90;5198146;55;1140945;-67
2023/08/28 03:51:50;;;;;;;4.57;4.10;;;;;;;16.75;100.00;100058.94;5198086;55;1140639;-69
2023/08/28 03:56:57;;;;;;;6.40;5.05;;;;;;;16.65;100.00;100061.77;5222378;54;1141159;-65
2023/08/28 04:02:03;;;;;;;5.27;4.20;;;;;;;16.60;100.00;100080.12;5219850;54;1140897;-67
2023/08/28 04:07:08;;;;;;;10.90;4.60;;;;;;;16.57;100.00;100084.45;5278535;54;1140842;-67
2023/08/28 04:12:15;;;;;;;7.33;5.30;;;;;;;16.53;100.00;100089.79;5251977;54;1142818;-68
2023/08/28 04:17:21;;;;;;;7.90;5.10;;;;;;;16.52;100.00;100076.94;5209438;55;1140936;-65
2023/08/28 04:22:26;;;;;;;13.27;5.10;;;;;;;16.48;100.00;100086.31;5188124;55;1140705;-69
2023/08/28 04:27:32;;;;;;;9.30;5.43;;;;;;;16.44;100.00;100084.97;5188598;55;1143267;-65
2023/08/28 04:32:38;;;;;;;7.07;5.40;;;;;;;16.41;100.00;100091.97;5208843;56;1141039;-65
2023/08/28 04:37:44;;;;;;;7.90;4.65;;;;;;;16.35;100.00;100093.95;5195821;55;1140644;-68
2023/08/28 04:42:49;;;;;;;10.75;5.50;;;;;;;16.31;100.00;100094.48;5197873;55;1140818;-66
2023/08/28 04:47:55;;;;;;;8.78;4.72;;;;;;;16.30;100.00;100092.80;5224266;54;1143009;-68
2023/08/28 04:53:01;;;;;;;10.30;5.77;;;;;;;16.28;100.00;100095.64;5308644;54;1140793;-67
2023/08/28 04:58:07;;;;;;;7.23;5.40;;;;;;;16.22;100.00;100100.29;5209931;54;1142776;-66
2023/08/28 05:03:12;;;;;;;8.60;5.50;;;;;;;16.21;100.00;100104.45;5207151;54;1141115;-68
2023/08/28 05:08:18;;;;;;;9.63;6.57;;;;;;;16.22;100.00;100101.63;5253635;54;1141056;-68
2023/08/28 05:13:24;;;;;;;6.50;5.13;;;;;;;16.23;100.00;100099.30;5084167;55;1140766;-66
2023/08/28 05:18:29;;;;;;;8.37;6.30;;;;;;;16.27;100.00;100112.65;5217930;54;1140637;-68
2023/08/28 05:23:35;;;;;;;12.72;7.02;;;;;;;16.28;100.00;100115.66;5218823;55;1141110;-65
2023/08/28 05:28:41;;;;;;;9.85;6.97;;;;;;;16.28;100.00;100115.66;5197573;54;1143000;-65
2023/08/28 05:33:46;;;;;;;7.43;6.03;;;;;;;16.31;100.00;100129.17;5197881;54;1140840;-65
2023/08/28 05:38:52;;;;;;;8.60;6.57;;;;;;;16.33;100.00;100128.01;5191045;55;1140899;-68
2023/08/28 05:43:58;;;;;;;6.93;6.20;;;;;;;16.33;100.00;100132.52;5230228;54;1140806;-69
2023/08/28 05:49:04;;;;;;;7.70;5.60;;;;;;;16.32;100.00;100134.84;5276415;54;1140649;-64
2023/08/28 05:54:10;;;;;;;6.50;5.20;;;;;;;16.33;100.00;100129.84;5269921;55;1141094;-67
2023/08/28 05:59:15;;;;;;;5.20;4.70;;;;;;;16.32;100.00;100142.35;5202003;55;1140866;-67
2023/08/28 06:04:21;;;;;;;7.30;5.70;;;;;;;16.31;100.00;100155.86;5211676;54;1141127;-66
2023/08/28 06:09:28;;;;;;;8.10;5.40;;;;;;;16.37;100.00;100152.02;5140941;55;1140892;-66
2023/08/28 06:14:34;;;;;;;8.30;6.70;;;;;;;16.44;100.00;100158.87;5213995;55;1141240;-66
2023/08/28 06:19:39;;;;;;;6.10;5.50;;;;;;;16.45;100.00;100157.88;5187474;55;1141197;-68
2023/08/28 06:24:50;;;;;;;8.27;5.67;;;;;;;16.54;100.00;100152.86;5186433;55;1140673;-69
2023/08/28 06:29:52;;;;;;;8.37;5.83;;;;;;;16.50;100.00;100159.52;5186461;53;1140963;-68
2023/08/28 06:34:58;;;;;;;8.40;6.10;;;;;;;16.45;100.00;100155.20;5207332;55;1140654;-68
2023/08/28 06:40:04;;;;;;;9.93;6.50;;;;;;;16.47;100.00;100159.38;5211892;54;1140896;-65
2023/08/28 06:45:10;;;;;;;6.70;4.63;;;;;;;16.52;100.00;100151.69;5287868;54;1140821;-65
2023/08/28 06:50:16;;;;;;;7.57;5.10;;;;;;;16.66;100.00;100155.56;5309248;54;1140902;-68
2023/08/28 06:55:22;;;;;;;6.63;5.10;;;;;;;16.74;100.00;100160.92;5288254;54;1140818;-68
2023/08/28 07:00:27;;;;;;;7.87;5.20;;;;;;;16.71;100.00;100170.59;5288487;54;1140988;-68
2023/08/28 07:05:33;;;;;;;5.40;4.73;;;;;;;16.64;100.00;100170.94;5241797;54;1140492;-68
2023/08/28 07:10:39;;;;;;;6.15;5.00;;;;;;;16.82;100.00;100167.58;5229651;54;1140775;-67
2023/08/28 07:15:49;;;;;;;4.62;4.22;;;;;;;17.02;100.00;100182.77;5198441;53;1140797;-65
2023/08/28 07:20:55;;;;;;;6.10;5.10;;;;;;;17.02;100.00;100177.92;5211020;54;1140902;-67
2023/08/28 07:26:02;;;;;;;6.10;4.10;;;;;;;17.01;100.00;100173.08;5246643;54;1140760;-66
2023/08/28 07:31:07;;;;;;;5.03;3.67;;;;;;;17.06;100.00;100174.75;5218054;54;1140529;-69
2023/08/28 07:36:13;;;;;;;4.47;3.80;;;;;;;17.21;100.00;100177.06;5228789;54;1140698;-69
2023/08/28 07:41:19;;;;;;;3.27;3.08;;;;;;;17.39;100.00;100180.88;5235535;54;1140974;-65
2023/08/28 07:46:28;;;;;;;3.80;3.08;;;;;;;17.58;100.00;100183.64;5224713;54;1140720;-67
2023/08/28 07:51:34;;;;;;;5.78;3.25;;;;;;;17.55;100.00;100189.35;5221670;54;1140991;-65
2023/08/28 07:56:40;;;;;;;4.67;3.08;;;;;;;17.53;100.00;100196.70;5244685;54;1140986;-65
2023/08/28 08:01:45;;;;;;;5.27;3.30;;;;;;;17.53;100.00;100199.38;5223235;53;1140911;-67
2023/08/28 08:06:51;;;;;;;4.20;2.80;;;;;;;17.55;100.00;100191.53;5219715;54;1140799;-66
2023/08/28 08:11:57;;;;;;;3.33;3.12;;;;;;;17.57;100.00;100191.33;5217691;54;1141054;-69
2023/08/28 08:17:03;;;;;;;5.83;2.77;;;;;;;17.51;100.00;100205.40;5211901;53;1140888;-66
2023/08/28 08:22:09;;;;;;;4.00;2.60;;;;;;;17.47;100.00;100202.73;5160541;54;1140848;-67
2023/08/28 08:27:15;;;;;;;3.63;2.30;;;;;;;17.42;100.00;100205.91;5141205;55;1140643;-67
2023/08/28 08:32:21;;;;;;;3.05;2.65;;;;;;;17.43;100.00;100214.27;5240003;54;1140924;-67
2023/08/28 08:37:29;;;;;;;2.75;2.55;;;;;;;17.46;100.00;100215.26;5288333;54;1140610;-67
2023/08/28 08:42:35;;;;;;;3.60;3.10;;;;;;;17.52;100.00;100225.28;5286764;54;1140820;-68
2023/08/28 08:47:42;;;;;;;2.67;2.47;;;;;;;17.54;100.00;100218.44;5201065;55;1140913;-66
2023/08/28 08:52:49;;;;;;;2.60;2.45;;;;;;;17.65;100.00;100216.75;5182059;56;1140782;-66
2023/08/28 08:57:58;;;;;;;3.17;2.62;;;;;;;17.71;100.00;100216.58;5210809;54;1140833;-67
2023/08/28 09:03:06;;;;;;;3.77;2.93;;;;;;;17.69;100.00;100223.44;5199793;53;1140906;-69
2023/08/28 09:08:15;;;;;;;6.53;3.67;;;;;;;17.72;100.00;100218.25;5214742;54;1140666;-66
2023/08/28 09:13:20;;;;;;;11.83;6.22;;;;;;;17.84;100.00;100227.56;5201449;53;1140801;-66
2023/08/28 09:18:27;;;;;;;3.27;3.02;;;;;;;17.93;100.00;100230.53;5275216;55;1142753;-67
2023/08/28 09:23:34;;;;;;;2.62;2.20;;;;;;;17.96;100.00;100224.84;5296113;54;1140888;-71
2023/08/28 09:28:40;;;;;;;3.88;2.32;;;;;;;18.06;100.00;100237.99;5257421;53;1140691;-69
2023/08/28 09:33:46;;;;;;;3.40;2.30;;;;;;;17.98;100.00;100256.78;5235701;55;1141132;-65
2023/08/28 09:38:52;;;;;;;4.78;2.17;;;;;;;17.98;100.00;100256.78;5254952;55;1140994;-67
2023/08/28 09:43:58;;;;;;;3.02;2.10;;;;;;;17.99;100.00;100240.55;5202292;55;1140919;-66
2023/08/28 09:49:04;;;;;;;8.00;2.37;;;;;;;17.97;100.00;100231.86;5188666;55;1141087;-66
2023/08/28 09:54:11;;;;;;;3.80;1.33;;;;;;;18.04;100.00;100220.77;5210099;55;1141014;-67
2023/08/28 09:59:16;;;;;;;2.58;1.85;;;;;;;18.15;100.00;100226.27;5237966;54;1140763;-67
2023/08/28 10:04:22;;;;;;;2.58;1.75;;;;;;;18.15;100.00;100224.42;5252064;54;1140819;-68
2023/08/28 10:09:32;;;;;;;1.80;1.40;;;;;;;18.13;100.00;100222.42;5274583;55;1140740;-67
2023/08/28 10:14:38;;;;;;;1.62;1.52;;;;;;;18.13;100.00;100222.42;5277264;54;1141136;-69
2023/08/28 10:20:04;;;;;;;1.72;1.57;;;;;;;18.12;100.00;100226.61;5231916;54;1140786;-67
2023/08/28 10:25:13;;;;;;;4.62;1.36;;;;;;;18.17;100.00;100226.92;5231446;54;1140867;-69
2023/08/28 10:30:21;;;;;;;2.42;2.22;;;;;;;18.26;100.00;100232.55;5032955;56;1140795;-70
2023/08/28 10:35:28;;;;;;;2.20;1.65;;;;;;;18.25;100.00;100237.58;5046016;56;1140797;-69
2023/08/28 10:40:34;;;;;;;1.67;1.57;;;;;;;18.24;100.00;100232.72;5106712;56;1140920;-67
2023/08/28 10:45:41;;;;;;;4.42;2.05;;;;;;;18.34;100.00;100216.43;5101604;56;1141120;-67
2023/08/28 10:50:47;;;;;;;2.33;1.20;;;;;;;18.33;100.00;100201.41;5029705;57;1141044;-69
2023/08/28 10:56:04;;;;;;;1.97;1.20;;;;;;;18.34;100.00;100205.72;5042469;56;1141061;-67
2023/08/28 11:01:15;;;;;;;3.00;1.27;;;;;;;18.41;100.00;100213.39;5124505;55;1141242;-64
2023/08/28 11:06:43;;;;;;;1.20;1.05;;;;;;;18.49;100.00;100228.55;5189842;55;1140761;-68
2023/08/28 11:11:50;;;;;;;1.87;1.12;;;;;;;18.49;100.00;100221.36;5033739;57;1140865;-66
2023/08/28 11:17:11;;;;;;;0.90;0.90;;;;;;;18.53;100.00;100213.30;4963943;57;1140978;-67
2023/08/28 11:22:19;;;;;;;3.85;2.33;;;;;;;18.59;100.00;100226.53;4954417;57;1141074;-68
2023/08/28 11:27:42;;;;;;;4.05;2.00;;;;;;;18.61;100.00;100223.17;4972067;57;1140898;-66
2023/08/28 11:32:51;;;;;;;1.60;1.50;;;;;;;18.60;100.00;100227.70;4976627;56;1140801;-66
2023/08/28 11:37:57;;;;;;;3.43;1.40;;;;;;;18.62;100.00;100210.11;5035963;56;1140706;-68
2023/08/28 11:43:07;;;;;;;2.60;1.73;;;;;;;18.51;100.00;100212.64;5035736;56;1140933;-69
2023/08/28 11:48:12;;;;;;;1.62;1.52;;;;;;;18.41;100.00;100229.45;5120744;54;1141160;-67
2023/08/28 11:53:21;;;;;;;1.95;1.50;;;;;;;18.46;100.00;100238.31;5287599;54;1140982;-67
2023/08/28 11:58:27;;;;;;;1.50;1.40;;;;;;;18.46;100.00;100215.55;5283781;54;1140946;-66
2023/08/28 12:03:33;;;;;;;2.00;1.07;;;;;;;18.46;100.00;100180.73;5148836;56;1141314;-69
2023/08/28 12:08:44;;;;;;;1.20;0.90;;;;;;;18.53;100.00;100168.28;5288155;54;1140931;-69
2023/08/28 12:13:51;;;;;;;1.05;1.02;;;;;;;18.57;100.00;100188.34;5264343;54;1140824;-66
2023/08/28 12:18:57;;;;;;;2.30;1.00;;;;;;;18.53;100.00;100210.63;5172222;54;1150607;-67
2023/08/28 12:24:06;;;;;;;1.22;1.02;;;;;;;18.51;100.00;100225.20;5218443;55;1140961;-67
2023/08/28 12:29:11;;;;;;;2.98;1.05;;;;;;;18.47;100.00;100216.71;5210700;54;1140902;-70
2023/08/28 12:34:16;;;;;;;1.95;1.17;;;;;;;18.41;100.00;100212.55;5284916;54;1140740;-68
2023/08/28 12:39:30;;;;;;;1.35;1.25;;;;;;;18.34;100.00;100215.59;5222068;54;1140968;-68
2023/08/28 12:44:35;;;;;;;1.25;1.20;;;;;;;18.34;100.00;100224.97;5301006;54;1140870;-67
2023/08/28 12:49:42;;;;;;;5.08;1.35;;;;;;;18.31;100.00;100228.86;5245231;54;1141058;-70
2023/08/28 12:54:47;;;;;;;1.10;0.93;;;;;;;18.26;100.00;100245.94;5248675;54;1140585;-68
2023/08/28 12:59:53;;;;;;;2.77;1.27;;;;;;;18.23;100.00;100267.70;5241231;54;1140866;-66
2023/08/28 13:05:00;;;;;;;1.83;1.30;;;;;;;18.11;100.00;100276.62;5222861;54;1140921;-67
2023/08/28 13:10:06;;;;;;;1.37;1.27;;;;;;;18.02;100.00;100268.31;5255884;54;1140800;-68
2023/08/28 13:15:12;;;;;;;5.37;1.70;;;;;;;18.02;100.00;100261.62;5261435;54;1141137;-67
2023/08/28 13:20:23;;;;;;;1.30;1.10;;;;;;;17.98;100.00;100250.92;5287885;54;1140782;-65
2023/08/28 13:25:29;;;;;;;1.08;1.08;;;;;;;18.03;100.00;100257.06;5280246;54;1140668;-68
2023/08/28 13:30:34;;;;;;;1.25;1.22;;;;;;;18.16;100.00;100250.69;5248163;54;1141017;-67
2023/08/28 13:35:40;;;;;;;0.80;0.80;;;;;;;18.24;100.00;100254.64;5288271;54;1140778;-68
2023/08/28 13:40:46;;;;;;;1.72;1.35;;;;;;;18.25;100.00;100241.59;5309122;54;1140909;-66
2023/08/28 13:45:52;;;;;;;3.27;1.30;;;;;;;18.27;100.00;100258.31;5288308;54;1140751;-70
2023/08/28 13:50:57;;;;;;;2.83;1.10;;;;;;;18.30;100.00;100239.23;5279104;54;1140941;-70
2023/08/28 13:56:04;;;;;;;1.40;1.30;;;;;;;18.27;100.00;100253.80;5288813;54;1140711;-66
2023/08/28 14:01:09;;;;;;;3.02;1.20;;;;;;;18.14;100.00;100273.61;5310146;54;1140929;-67
2023/08/28 14:06:15;;;;;;;3.08;1.10;;;;;;;17.98;100.00;100264.80;5289043;54;1141063;-66
2023/08/28 14:11:21;;;;;;;2.35;1.70;;;;;;;17.92;100.00;100250.27;5241762;54;1140884;-67
2023/08/28 14:16:26;;;;;;;1.62;1.30;;;;;;;17.94;100.00;100233.53;5224823;55;1140737;-68
2023/08/28 14:21:32;;;;;;;1.47;1.37;;;;;;;17.97;100.00;100225.67;4975235;57;1140757;-68
2023/08/28 14:26:38;;;;;;;1.55;1.45;;;;;;;17.97;100.00;100198.41;5142708;55;1140951;-67
2023/08/28 14:31:43;;;;;;;1.72;1.62;;;;;;;17.97;100.00;100186.88;5072515;56;1140948;-68
2023/08/28 14:36:49;;;;;;;3.60;1.70;;;;;;;17.93;100.00;100190.39;5142101;55;1140629;-68
2023/08/28 14:41:55;;;;;;;5.58;1.72;;;;;;;17.95;100.00;100188.88;5140133;55;1140965;-68
2023/08/28 14:47:01;;;;;;;3.70;1.90;;;;;;;17.97;100.00;100194.39;5287924;54;1140885;-67
2023/08/28 14:52:06;;;;;;;2.55;1.98;;;;;;;17.96;100.00;100195.91;5309974;54;1140936;-68
2023/08/28 14:57:12;;;;;;;2.55;2.35;;;;;;;17.92;100.00;100192.23;5032663;55;1141072;-69
2023/08/28 15:02:18;;;;;;;2.08;1.98;;;;;;;17.91;100.00;100192.41;5042057;56;1140748;-70
2023/08/28 15:07:24;;;;;;;2.12;2.02;;;;;;;17.97;100.00;100197.58;5335756;54;1140986;-67
2023/08/28 15:12:30;;;;;;;5.22;2.00;;;;;;;17.98;100.00;100200.58;5225636;54;1140826;-66
2023/08/28 15:17:35;;;;;;;4.05;2.22;;;;;;;17.92;100.00;100216.81;5241267;54;1140888;-69
2023/08/28 15:22:41;;;;;;;2.10;1.87;;;;;;;17.80;100.00;100224.89;5296832;55;1140755;-68
2023/08/28 15:27:47;;;;;;;3.10;2.10;;;;;;;17.73;100.00;100253.33;5274957;55;1140926;-70
2023/08/28 15:32:52;;;;;;;1.85;1.70;;;;;;;17.67;100.00;100248.17;5187171;55;1140782;-69
2023/08/28 15:37:59;;;;;;;1.90;1.80;;;;;;;17.69;100.00;100238.15;5186682;55;1140810;-69
2023/08/28 15:43:04;;;;;;;4.73;1.87;;;;;;;17.62;100.00;100283.08;5206068;55;1141013;-70
2023/08/28 15:48:10;;;;;;;2.02;1.92;;;;;;;17.62;100.00;100283.08;5258379;55;1141024;-68
2023/08/28 15:53:16;;;;;;;2.52;2.33;;;;;;;17.55;100.00;100293.14;5275779;55;1140907;-68
2023/08/28 15:58:24;;;;;;;2.12;2.02;;;;;;;17.46;100.00;100287.95;5250938;54;1140863;-66
2023/08/28 16:03:30;;;;;;;7.42;2.42;;;;;;;17.36;100.00;100281.95;5097934;56;1140815;-67
2023/08/28 16:08:36;;;;;;;2.25;2.15;;;;;;;17.28;100.00;100264.58;5042854;57;1140821;-65
2023/08/28 16:13:41;;;;;;;5.60;2.20;;;;;;;17.24;100.00;100274.79;5042315;57;1140979;-67
2023/08/28 16:18:47;;;;;;;2.60;2.40;;;;;;;17.21;100.00;100265.27;4959954;57;1141220;-69
2023/08/28 16:23:54;;;;;;;3.45;2.90;;;;;;;17.15;100.00;100282.45;4956196;57;1141017;-68
2023/08/28 16:29:00;;;;;;;4.08;3.25;;;;;;;17.11;100.00;100273.93;4930038;57;1140897;-68
2023/08/28 16:34:08;;;;;;;5.47;2.80;;;;;;;17.07;100.00;100283.30;4986019;57;1140865;-68
2023/08/28 16:39:13;;;;;;;5.90;2.87;;;;;;;17.05;100.00;100267.10;4907015;57;1140812;-70
2023/08/28 16:44:18;;;;;;;10.58;5.45;;;;;;;17.05;100.00;100251.91;5024684;56;1140719;-65
2023/08/28 16:49:24;;;;;;;13.53;8.37;;;;;;;16.93;100.00;100270.61;5126373;55;1142966;-66
2023/08/28 16:54:30;;;;;;;5.47;3.30;;;;;;;16.83;100.00;100277.42;5119662;55;1142783;-70
2023/08/28 16:59:35;;;;;;;2.65;1.75;;;;;;;16.73;100.00;100268.74;5206253;54;1140897;-70
2023/08/28 17:04:43;;;;;;;1.83;1.40;;;;;;;16.53;100.00;100257.98;5160367;55;1140790;-66
2023/08/28 17:09:52;;;;;;;1.80;1.60;;;;;;;16.45;100.00;100248.13;5113811;56;1258516;-70
2023/08/28 17:14:58;;;;;;;2.33;1.13;;;;;;;16.47;100.00;100243.97;5092046;56;1141429;-68
2023/08/28 17:20:04;;;;;;;4.15;1.30;;;;;;;16.42;100.00;100251.63;5127529;56;1141519;-67
2023/08/28 17:25:10;;;;;;;7.78;4.40;;;;;;;16.39;100.00;100246.11;5019917;56;1190344;-67
2023/08/28 17:30:15;;;;;;;4.83;2.13;;;;;;;16.41;100.00;100241.45;5015062;56;1258830;-66
2023/08/28 17:35:23;;;;;;;4.57;3.87;;;;;;;16.52;100.00;100226.44;5035849;57;1257397;-68
2023/08/28 17:40:29;;;;;;;3.70;2.97;;;;;;;16.58;100.00;100218.28;5014069;57;1257814;-68
2023/08/28 17:45:35;;;;;;;7.77;2.23;;;;;;;16.61;100.00;100227.30;5040660;56;1256147;-66
2023/08/28 17:50:46;;;;;;;8.80;3.90;;;;;;;16.59;100.00;100207.11;5125831;56;1243026;-67
2023/08/28 17:55:52;;;;;;;2.57;1.80;;;;;;;16.59;100.00;100205.77;5143747;55;1254515;-67
2023/08/28 18:00:58;;;;;;;3.20;1.76;;;;;;;16.55;100.00;100217.27;5198541;54;1246712;-66
2023/08/28 18:06:03;;;;;;;1.30;1.20;;;;;;;16.52;100.00;100223.77;5234989;55;1258454;-68
2023/08/28 18:11:09;;;;;;;4.15;3.20;;;;;;;16.45;100.00;100239.30;5261219;55;1141040;-69
2023/08/28 18:16:16;;;;;;;11.03;6.30;;;;;;;16.39;100.00;100242.10;5216059;55;1140813;-68
2023/08/28 18:21:22;;;;;;;16.83;9.33;;;;;;;16.34;100.00;100263.63;5226660;55;1143029;-68
2023/08/28 18:26:28;;;;;;;13.88;8.10;;;;;;;16.35;100.00;100265.27;5257319;55;1142834;-66
2023/08/28 18:31:34;;;;;;;8.93;6.27;;;;;;;16.33;100.00;100253.45;5231855;55;1143091;-66
2023/08/28 18:36:39;;;;;;;8.97;3.77;;;;;;;16.36;100.00;100273.12;5233194;55;1140871;-67
2023/08/28 18:41:45;;;;;;;2.30;1.73;;;;;;;16.10;100.00;100308.37;5259286;55;1147402;-66
2023/08/28 18:46:53;;;;;;;5.33;1.83;;;;;;;15.80;100.00;100343.05;5166728;55;1160394;-66
2023/08/28 18:51:59;;;;;;;23.78;19.84;;;;;;;15.63;100.00;100361.26;5150517;55;1140912;-70
2023/08/28 18:57:05;;;;;;;10.45;5.85;;;;;;;15.49;100.00;100347.47;5188073;54;1145283;-70
2023/08/28 19:02:11;;;;;;;8.30;4.60;;;;;;;15.40;100.00;100340.41;5217944;54;1143194;-68
2023/08/28 19:07:17;;;;;;;11.03;6.17;;;;;;;15.40;100.00;100300.93;5252114;55;1196116;-68
2023/08/28 19:12:22;;;;;;;12.77;5.77;;;;;;;15.56;100.00;100295.75;5257196;55;1143086;-68
2023/08/28 19:17:28;;;;;;;15.20;7.03;;;;;;;15.70;100.00;100283.67;5282317;55;1142987;-68
2023/08/28 19:22:34;;;;;;;8.60;4.13;;;;;;;15.66;100.00;100260.48;5234052;54;1142845;-69
2023/08/28 19:27:42;;;;;;;3.60;3.30;;;;;;;15.70;100.00;100242.34;5219762;54;1140634;-67
2023/08/28 19:32:47;;;;;;;3.73;3.00;;;;;;;15.70;100.00;100223.68;5271096;54;1140934;-66
2023/08/28 19:37:53;;;;;;;4.17;3.57;;;;;;;15.77;100.00;100223.36;5263227;55;1140985;-64
2023/08/28 19:42:58;;;;;;;3.98;2.80;;;;;;;15.77;100.00;100201.53;5204383;55;1140873;-66
2023/08/28 19:48:05;;;;;;;9.25;4.20;;;;;;;15.82;100.00;100185.91;5217321;55;1140747;-64
2023/08/28 19:53:11;;;;;;;4.15;3.17;;;;;;;15.82;100.00;100200.57;5231531;55;1140867;-66
2023/08/28 19:58:18;;;;;;;4.80;3.70;;;;;;;15.81;100.00;100202.89;5209524;54;1140792;-64
2023/08/28 20:03:25;;;;;;;7.17;2.73;;;;;;;15.89;100.00;100182.61;5243511;54;1141072;-65
2023/08/28 20:08:34;;;;;;;6.23;3.73;;;;;;;15.87;100.00;100175.26;5276930;54;1141355;-65
2023/08/28 20:13:39;;;;;;;4.20;2.80;;;;;;;15.82;100.00;100167.23;5138836;55;1141048;-66
2023/08/28 20:18:45;;;;;;;11.53;3.40;;;;;;;15.95;100.00;100169.44;5206507;56;1140859;-68
2023/08/28 20:23:50;;;;;;;5.80;4.90;;;;;;;15.97;100.00;100183.95;5185591;55;1142848;-66
2023/08/28 20:28:57;;;;;;;5.62;3.02;;;;;;;15.88;100.00;100204.94;5198231;55;1141007;-68
2023/08/28 20:34:02;;;;;;;3.15;2.67;;;;;;;15.75;100.00;100229.35;5174024;55;1140891;-66
2023/08/28 20:39:09;;;;;;;4.55;3.00;;;;;;;15.65;100.00;100243.31;5207222;55;1140688;-68
2023/08/28 20:44:14;;;;;;;6.33;3.00;;;;;;;15.60;100.00;100230.44;5186408;56;1140917;-67
2023/08/28 20:49:22;;;;;;;2.70;2.50;;;;;;;15.56;100.00;100194.45;5185764;56;1140716;-66
2023/08/28 20:54:27;;;;;;;3.07;2.63;;;;;;;15.55;100.00;100228.77;5200231;56;1140833;-67
2023/08/28 20:59:33;;;;;;;3.87;3.10;;;;;;;15.52;100.00;100222.38;5120121;55;1140645;-66
2023/08/28 21:04:38;;;;;;;3.30;2.93;;;;;;;15.51;100.00;100227.37;5223902;55;1140737;-68
2023/08/28 21:09:44;;;;;;;7.07;3.10;;;;;;;15.58;100.00;100215.12;5225809;55;1140740;-65
2023/08/28 21:14:49;;;;;;;3.83;2.90;;;;;;;15.62;100.00;100225.79;5224630;55;1140914;-69
2023/08/28 21:19:55;;;;;;;3.33;3.03;;;;;;;15.77;100.00;100243.36;5253529;55;1141213;-66
2023/08/28 21:25:01;;;;;;;4.28;3.85;;;;;;;15.77;100.00;100243.36;5252452;55;1141081;-68
2023/08/28 21:30:07;;;;;;;4.42;3.20;;;;;;;15.66;100.00;100219.16;5275291;55;1140962;-66
2023/08/28 21:35:13;;;;;;;13.58;3.58;;;;;;;15.56;100.00;100220.27;5254507;55;1140770;-68
2023/08/28 21:40:19;;;;;;;5.13;3.00;;;;;;;15.44;100.00;100211.66;5250127;54;1142758;-68
2023/08/28 21:45:24;;;;;;;5.20;2.57;;;;;;;15.40;100.00;100190.34;5241759;55;1141037;-69
2023/08/28 21:50:29;;;;;;;4.17;2.30;;;;;;;15.36;100.00;100178.31;5236135;55;1140833;-67
2023/08/28 21:55:53;;;;;;;4.90;2.42;;;;;;;15.25;100.00;100178.59;5199649;55;1140819;-69
2023/08/28 22:01:16;;;;;;;3.75;3.37;;;;;;;15.22;100.00;100186.39;5254626;55;1140831;-65
2023/08/28 22:06:42;;;;;;;;;;;;;;;15.21;100.00;100184.72;5278952;55;1140940;-68
2023/08/28 22:11:46;;;;;;;3.50;2.37;;;;;;;15.19;100.00;100207.17;5282184;55;978158;-65
2023/08/28 22:16:54;;;;;;;3.73;2.77;;;;;;;15.21;100.00;100210.52;5223460;55;1138743;-65
2023/08/28 22:22:02;;;;;;;3.50;3.02;;;;;;;15.22;100.00;100205.05;5219261;53;1140980;-70
2023/08/28 22:27:08;;;;;;;4.15;2.22;;;;;;;15.25;100.00;100199.91;5240710;53;1140742;-66
2023/08/28 22:32:13;;;;;;;4.85;2.60;;;;;;;15.36;100.00;100161.83;5220271;53;1140920;-70
2023/08/28 22:37:19;;;;;;;3.53;3.17;;;;;;;15.47;100.00;100139.39;5220076;55;1140916;-69
2023/08/28 22:42:24;;;;;;;3.53;2.73;;;;;;;15.53;100.00;100129.44;5258200;55;1140739;-66
2023/08/28 22:47:35;;;;;;;6.63;2.80;;;;;;;15.54;100.00;100145.77;5231920;55;1140950;-66
2023/08/28 22:52:41;;;;;;;5.43;3.17;;;;;;;15.62;100.00;100120.48;5107056;56;1140687;-69
2023/08/28 22:57:49;;;;;;;6.66;3.36;;;;;;;15.62;100.00;100112.99;5206474;54;1140664;-68